Asharoken, New York
Current Conditions -  °F | °C
As of 4:53 AM on Saturday 01 Nov 2014 (Local Time) from KFRG Reporting Station
Overcast Overcast  
Wind Chill: 43°   Ceiling: 6500
Heat Index: 49°   Visibility: 10mi
Dew Point: 40°   Wind: 17mph
Humidity: 71%   Direction: 30°NNE
Pressure: 29.79"   Gusts: 23mph
Location:  40.9096°N, 73.3231°W
Report Text: KFRG 010853Z AUTO 03015G20KT 10SM FEW049 OVC065 09/04 A2979 RMK AO2 SLP089 T00940044 58013
Loading
Personal Weather Stations






























Interactive Weather Map
Tropical Storm Tracking
New forecast layout! Learn more

10-Day Weather Forecast

Advertisements
Track Severe Weather on mobile